Time;durP1;ratioP1;P1;durP2;ratioP2;P2;SDS_P1;SDS_P2;PMS_P1;PMS_P2;Temp;Humidity;BMP_temperature;BMP_pressure;BME280_temperature;BME280_humidity;BME280_pressure;Samples;Min_cycle;Max_cycle;Signal;HPM_P1;HPM_P2
2022/12/13 11:24:26;;;;;;;12.93;10.33;;;21.30;49.20;;;;;;5158277;27;20561;-72
2022/12/13 11:26:53;;;;;;;12.10;10.90;;;10.50;19.90;;;;;;5149216;27;20200;-70
2022/12/13 11:29:19;;;;;;;12.47;10.87;;;5.30;25.30;;;;;;5141750;27;20241;-71
2022/12/13 11:31:46;;;;;;;14.30;9.87;;;2.60;30.10;;;;;;5141536;27;20224;-70
2022/12/13 11:34:13;;;;;;;14.20;11.13;;;2.30;30.60;;;;;;5134998;22;20503;-78
2022/12/13 11:36:39;;;;;;;13.17;10.47;;;1.70;31.40;;;;;;5060421;28;20193;-78
2022/12/13 11:39:06;;;;;;;13.37;11.57;;;1.20;31.40;;;;;;5065568;28;20574;-78
2022/12/13 11:41:32;;;;;;;13.03;11.37;;;1.20;31.60;;;;;;5064680;28;20224;-78
2022/12/13 11:43:59;;;;;;;16.30;11.93;;;1.00;32.90;;;;;;5064701;28;20238;-77
2022/12/13 11:46:25;;;;;;;17.07;11.83;;;0.80;32.50;;;;;;5069507;28;20412;-77
2022/12/13 11:48:51;;;;;;;15.10;11.70;;;0.60;33.10;;;;;;5062125;28;20212;-78
2022/12/13 11:51:19;;;;;;;13.80;11.57;;;0.70;33.20;;;;;;5072400;28;20234;-77
2022/12/13 11:53:45;;;;;;;13.33;10.63;;;0.60;33.10;;;;;;5070802;28;20286;-76
2022/12/13 11:56:12;;;;;;;12.60;10.20;;;0.40;32.90;;;;;;5086755;28;20202;-77
2022/12/13 11:58:38;;;;;;;13.50;11.13;;;0.10;33.70;;;;;;5080274;28;20829;-77
2022/12/13 12:01:05;;;;;;;14.23;11.03;;;0.10;34.10;;;;;;5061074;28;20253;-76
2022/12/13 12:03:31;;;;;;;13.50;10.47;;;0.00;34.70;;;;;;5056407;28;20222;-78
2022/12/13 12:05:58;;;;;;;13.33;11.57;;;-0.10;34.50;;;;;;5057777;28;20198;-78
2022/12/13 12:08:25;;;;;;;14.57;11.47;;;-0.70;36.10;;;;;;5059028;28;20969;-77
2022/12/13 12:10:51;;;;;;;15.50;12.03;;;-0.70;36.40;;;;;;5065504;28;20251;-80
2022/12/13 12:13:17;;;;;;;14.97;12.50;;;-0.80;36.50;;;;;;5068094;28;20201;-76
2022/12/13 12:15:44;;;;;;;16.20;12.07;;;-0.80;36.60;;;;;;5058059;28;20201;-77
2022/12/13 12:18:10;;;;;;;16.20;12.10;;;-1.00;36.40;;;;;;4969084;28;20226;-78
2022/12/13 12:20:37;;;;;;;17.57;13.13;;;-0.60;36.80;;;;;;5015738;28;20269;-77
2022/12/13 12:23:03;;;;;;;16.63;12.50;;;-0.60;36.70;;;;;;5023366;28;20234;-75
2022/12/13 12:25:30;;;;;;;15.87;13.17;;;-0.50;36.80;;;;;;5027225;28;20210;-76
2022/12/13 12:27:56;;;;;;;17.70;13.30;;;-0.50;36.30;;;;;;5023992;28;20199;-74
2022/12/13 12:30:23;;;;;;;15.40;12.13;;;-0.30;36.10;;;;;;5023263;28;20252;-81
2022/12/13 12:32:49;;;;;;;16.90;13.33;;;-0.20;36.40;;;;;;5016573;28;20207;-81
2022/12/13 12:35:15;;;;;;;16.10;12.23;;;-0.10;35.40;;;;;;4962697;28;20325;-80
2022/12/13 12:37:42;;;;;;;18.70;13.10;;;0.20;34.60;;;;;;5013365;28;20207;-79
2022/12/13 12:40:08;;;;;;;20.10;13.10;;;0.20;34.60;;;;;;5010106;28;20203;-80
2022/12/13 12:42:35;;;;;;;17.73;13.83;;;-0.20;35.00;;;;;;5012469;28;20235;-79
2022/12/13 12:45:02;;;;;;;18.10;13.73;;;-0.40;35.90;;;;;;5014137;28;20381;-81
2022/12/13 12:47:28;;;;;;;15.90;12.60;;;-0.30;35.60;;;;;;5013175;28;20254;-79
2022/12/13 12:49:55;;;;;;;16.97;12.93;;;-0.10;35.00;;;;;;5011354;28;20269;-82
2022/12/13 12:52:22;;;;;;;16.07;12.80;;;-0.10;35.20;;;;;;5014940;28;20217;-82
2022/12/13 12:54:48;;;;;;;19.23;13.53;;;-0.50;35.40;;;;;;5008138;28;20221;-80
2022/12/13 12:57:15;;;;;;;16.80;13.23;;;-0.90;36.50;;;;;;5011389;28;20212;-80
2022/12/13 12:59:41;;;;;;;14.00;12.50;;;-1.00;37.30;;;;;;5007958;28;20228;-81
2022/12/13 13:02:08;;;;;;;17.87;13.27;;;-0.70;36.70;;;;;;5006631;28;20203;-81
2022/12/13 13:04:35;;;;;;;18.30;13.20;;;-0.50;36.40;;;;;;5013769;28;20248;-81
2022/12/13 13:07:02;;;;;;;15.53;11.93;;;-0.80;36.50;;;;;;5012082;28;20257;-79
2022/12/13 13:09:29;;;;;;;14.90;12.43;;;-0.60;36.00;;;;;;5006089;28;20210;-80
2022/12/13 13:11:55;;;;;;;15.17;12.20;;;-0.80;36.50;;;;;;5006904;28;20232;-79
2022/12/13 13:14:22;;;;;;;21.67;14.13;;;-1.10;37.40;;;;;;5006036;28;20204;-87
2022/12/13 13:16:48;;;;;;;17.77;12.60;;;-1.30;37.50;;;;;;5002345;28;20205;-83
2022/12/13 13:19:15;;;;;;;16.00;11.97;;;-1.60;38.10;;;;;;5006304;28;20219;-83
2022/12/13 13:21:42;;;;;;;16.53;12.20;;;-1.60;38.40;;;;;;5008165;28;20231;-82
2022/12/13 13:24:08;;;;;;;14.53;12.47;;;-1.70;38.70;;;;;;5008148;28;20639;-83
2022/12/13 13:26:35;;;;;;;16.13;12.43;;;-1.70;39.00;;;;;;5006896;28;20685;-82
2022/12/13 13:29:01;;;;;;;16.77;11.33;;;-1.80;46.50;;;;;;5001497;28;20215;-83
2022/12/13 13:31:28;;;;;;;14.03;11.33;;;-1.90;39.10;;;;;;5007622;28;20249;-85
2022/12/13 13:33:54;;;;;;;16.53;13.33;;;-1.90;39.60;;;;;;5005218;28;20214;-85
2022/12/13 13:36:21;;;;;;;30.60;12.63;;;-1.90;39.30;;;;;;5007015;28;20679;-89
2022/12/13 13:38:47;;;;;;;15.67;12.87;;;-2.00;39.80;;;;;;5008877;28;20206;-80
2022/12/13 13:41:13;;;;;;;17.20;12.97;;;-2.10;40.00;;;;;;5007419;28;20219;-80
2022/12/13 13:43:40;;;;;;;18.40;13.13;;;-2.20;39.90;;;;;;5008394;28;20231;-79
2022/12/13 13:46:06;;;;;;;18.10;13.33;;;-2.30;40.40;;;;;;5009481;28;20200;-79
2022/12/13 13:48:35;;;;;;;19.47;14.13;;;-2.30;40.60;;;;;;5003883;28;20218;-80
2022/12/13 13:51:02;;;;;;;19.53;12.17;;;-2.20;40.40;;;;;;5007801;28;20226;-82
2022/12/13 13:53:28;;;;;;;16.63;11.80;;;-2.00;40.10;;;;;;5010752;28;20277;-82
2022/12/13 13:55:55;;;;;;;17.63;12.47;;;-2.10;40.10;;;;;;5010678;28;20203;-81
2022/12/13 13:58:22;;;;;;;14.83;11.47;;;-2.10;40.10;;;;;;5009419;28;20648;-84
2022/12/13 14:00:48;;;;;;;14.70;12.27;;;-2.20;39.90;;;;;;5009323;28;20226;-83
2022/12/13 14:03:15;;;;;;;14.20;11.53;;;-2.60;40.50;;;;;;5006173;28;20227;-82
2022/12/13 14:05:42;;;;;;;16.13;12.60;;;-2.60;40.90;;;;;;5011219;28;20203;-80
2022/12/13 14:08:08;;;;;;;15.37;12.47;;;-2.80;41.50;;;;;;5005848;28;20286;-81
2022/12/13 14:10:34;;;;;;;18.10;12.07;;;-2.80;41.90;;;;;;5006616;28;20321;-79
2022/12/13 14:13:01;;;;;;;17.43;12.47;;;-2.70;41.40;;;;;;5007173;28;20206;-82
2022/12/13 14:15:27;;;;;;;17.87;12.97;;;-2.80;41.50;;;;;;5007579;28;20211;-88
2022/12/13 14:17:54;;;;;;;15.73;12.90;;;-3.00;42.10;;;;;;5006234;28;20210;-85
2022/12/13 14:20:20;;;;;;;17.37;12.90;;;-3.20;42.90;;;;;;5007242;28;20409;-80
2022/12/13 14:22:47;;;;;;;16.20;12.77;;;-3.00;42.50;;;;;;5009273;28;20195;-85
2022/12/13 14:25:13;;;;;;;21.03;13.13;;;-3.10;42.60;;;;;;5007127;28;20196;-81
2022/12/13 14:27:40;;;;;;;28.83;16.63;;;-3.10;43.10;;;;;;5006336;28;20214;-67
2022/12/13 14:30:07;;;;;;;16.43;12.40;;;5.30;94.60;;;;;;5006933;28;20246;-38
2022/12/13 14:32:35;;;;;;;19.63;11.37;;;11.20;99.40;;;;;;5007838;28;20242;-37
2022/12/13 14:35:01;;;;;;;14.47;9.07;;;15.50;60.70;;;;;;5028977;28;20612;-37
2022/12/13 14:37:29;;;;;;;11.63;7.90;;;17.60;49.20;;;;;;5030622;28;20204;-39
2022/12/13 14:39:55;;;;;;;11.30;7.63;;;18.70;47.60;;;;;;5027782;28;20228;-39
2022/12/13 14:42:22;;;;;;;13.40;7.63;;;19.30;47.30;;;;;;5018431;28;20686;-39
2022/12/13 14:44:48;;;;;;;13.17;6.07;;;19.80;47.80;;;;;;5023353;28;20709;-41
2022/12/13 14:47:15;;;;;;;8.50;4.93;;;20.00;48.00;;;;;;5022959;28;20412;-39
2022/12/13 14:49:41;;;;;;;9.13;4.53;;;20.20;46.40;;;;;;5018435;28;20229;-36
2022/12/13 14:52:08;;;;;;;7.70;4.23;;;20.30;46.40;;;;;;5019256;28;20648;-36
2022/12/13 14:54:34;;;;;;;7.70;4.33;;;20.40;46.40;;;;;;5027309;28;20254;-36
2022/12/13 14:57:01;;;;;;;7.03;4.23;;;20.60;46.50;;;;;;5025689;28;20195;-37
2022/12/13 14:59:27;;;;;;;5.53;4.43;;;20.70;45.90;;;;;;5027123;28;20229;-38
2022/12/13 15:01:54;;;;;;;5.60;3.50;;;20.90;45.30;;;;;;5030149;28;20207;-39
2022/12/13 15:04:20;;;;;;;6.20;3.70;;;21.00;45.00;;;;;;5032123;28;20236;-38
2022/12/13 15:06:46;;;;;;;5.77;3.87;;;21.10;45.10;;;;;;5024394;28;20202;-38
2022/12/13 15:09:13;;;;;;;6.53;3.80;;;21.10;45.10;;;;;;5029895;28;20232;-38
2022/12/13 15:11:39;;;;;;;6.93;3.77;;;21.10;45.10;;;;;;5029578;28;20563;-38
2022/12/13 15:14:06;;;;;;;8.67;3.90;;;21.10;45.10;;;;;;5029225;28;20213;-37
2022/12/13 15:16:32;;;;;;;5.30;3.30;;;21.10;45.10;;;;;;5025902;28;20205;-38
2022/12/13 15:18:59;;;;;;;5.03;3.25;;;21.10;45.10;;;;;;5029657;28;20210;-38
2022/12/13 15:21:26;;;;;;;6.22;3.55;;;21.10;45.20;;;;;;5027911;28;20218;-39
2022/12/13 15:23:53;;;;;;;4.90;3.28;;;21.10;45.20;;;;;;5029185;28;20225;-39
2022/12/13 15:26:19;;;;;;;6.07;3.85;;;21.10;45.10;;;;;;5028865;28;20198;-39
2022/12/13 15:28:46;;;;;;;4.13;3.13;;;21.10;45.40;;;;;;5029640;28;20206;-37
2022/12/13 15:31:12;;;;;;;4.70;3.65;;;21.10;45.50;;;;;;5026844;28;20201;-38
2022/12/13 15:33:38;;;;;;;4.13;3.55;;;21.10;45.10;;;;;;5031268;28;20216;-38
2022/12/13 15:36:05;;;;;;;5.50;3.47;;;21.10;45.10;;;;;;5025501;28;20625;-37
2022/12/13 15:38:31;;;;;;;4.65;3.47;;;21.20;45.20;;;;;;5025081;28;20202;-37
2022/12/13 15:40:59;;;;;;;4.50;3.10;;;21.20;45.20;;;;;;5021014;28;20222;-37
2022/12/13 15:43:26;;;;;;;5.38;3.08;;;21.20;45.20;;;;;;5026251;28;20222;-38
2022/12/13 15:45:52;;;;;;;4.13;3.20;;;21.30;45.30;;;;;;5027360;28;20277;-39
2022/12/13 15:48:18;;;;;;;5.45;2.95;;;21.30;45.30;;;;;;5027436;28;20217;-38
2022/12/13 15:50:45;;;;;;;6.45;3.20;;;21.30;45.70;;;;;;5028943;28;20226;-37
2022/12/13 15:53:11;;;;;;;6.65;3.28;;;21.30;45.10;;;;;;5025925;28;20206;-35
2022/12/13 15:55:38;;;;;;;4.45;3.38;;;21.30;45.00;;;;;;5016815;28;20321;-38
2022/12/13 15:58:04;;;;;;;4.43;3.10;;;21.20;44.60;;;;;;5021581;28;20209;-38
2022/12/13 16:00:31;;;;;;;6.10;3.58;;;21.30;44.50;;;;;;5026381;28;20226;-38
2022/12/13 16:02:57;;;;;;;3.50;3.05;;;21.30;44.50;;;;;;5027828;28;20281;-37
2022/12/13 16:05:24;;;;;;;3.50;2.92;;;21.20;44.50;;;;;;5029068;28;20233;-38
2022/12/13 16:07:50;;;;;;;3.75;3.00;;;21.20;44.60;;;;;;5021870;28;20234;-37
2022/12/13 16:10:17;;;;;;;5.40;2.83;;;21.30;44.40;;;;;;5026110;28;20230;-38
2022/12/13 16:12:44;;;;;;;5.03;3.30;;;21.30;44.30;;;;;;5031556;28;20210;-39
2022/12/13 16:15:10;;;;;;;4.78;3.53;;;21.40;44.40;;;;;;5025334;28;20215;-36
2022/12/13 16:17:36;;;;;;;5.72;3.17;;;21.40;44.60;;;;;;5003542;28;20234;-39
2022/12/13 16:20:04;;;;;;;6.75;3.90;;;21.60;44.30;;;;;;5027480;28;20233;-40
